Megan T Miller — WCW9003 — position and weather

sailwx.info

Track history (hours):
 
Tides and Currents Weather Stations Pressure Air Temp Water Temp Dewpoint Dewpoint Depression Visibility Wind Speed Wind Dir Waves Ship Positions

Megan T Miller

Owner: MILLER MARINE SERVICES INC, PORT JEFFERSON, NY. More information available from US FCC via Universal Licensing System and Coast Guard Vessel Documentation Center.

Last reported at 2015-Mar-09 21:16 UTC. Time now 2015-Mar-29 12:32 UTC.
Position N 41°17' W 072°55'.
Warning: this ship's position is 19 days out of date.

Length 18 m.

MMSI: 338104509.

Date/timePositionNaut miles runAvg speedWind from/ knotsBaromVisibWave heightAir tempDewpointWater temp
2015-Mar-09 21:16N 41°17' W 072°55'8 8.6
2015-Mar-09 20:18N 41°10' W 073°00'8 9.8
2015-Mar-09 19:32N 41°05' W 073°08'13 1.5
2015-Mar-09 10:16N 40°55' W 073°21'1 0.0
2015-Mar-08 12:27N 40°56' W 073°21'1 0.2
2015-Mar-08 06:23N 40°55' W 073°21'2 0.2
2015-Mar-07 23:14N 40°57' W 073°20'2 0.2
2015-Mar-07 15:20N 40°55' W 073°21'17 3.2
2015-Mar-07 10:07N 41°04' W 073°02'5 8.7
2015-Mar-07 09:33N 41°08' W 072°58'9 9.2
2015-Mar-07 08:33N 41°17' W 072°55'  
2015-Mar-03 17:13N 41°14' W 072°55'3 4.4
2015-Mar-03 16:33N 41°12' W 072°52'0 0.0
2015-Mar-03 15:33N 41°12' W 072°52'3 3.1
2015-Mar-03 14:33N 41°14' W 072°55'4 0.1
2015-Mar-01 14:22N 41°18' W 072°54'4 4.7
2015-Mar-01 13:32N 41°14' W 072°55'0 0.3
2015-Mar-01 12:33N 41°14' W 072°55'0 0.0
2015-Feb-28 17:15N 41°14' W 072°55'14 8.5
2015-Feb-28 15:33N 41°01' W 073°04'9 9.2
2015-Feb-28 14:33N 41°08' W 072°57'4 3.8
2015-Feb-28 13:34N 41°12' W 072°54'0 0.4
2015-Feb-28 12:33N 41°12' W 072°54'6 5.5
2015-Feb-28 11:32N 41°18' W 072°55'1 0.7
2015-Feb-28 10:23N 41°18' W 072°54'  
Track history (hours):
 
Tides and Currents Weather Stations Pressure Air Temp Water Temp Dewpoint Dewpoint Depression Visibility Wind Speed Wind Dir Waves Ship Positions

Megan T Miller

Owner: MILLER MARINE SERVICES INC, PORT JEFFERSON, NY. More information available from US FCC via Universal Licensing System and Coast Guard Vessel Documentation Center.

Last reported at 2015-Mar-09 21:16 UTC. Time now 2015-Mar-29 12:32 UTC.
Position N 41°17' W 072°55'.
Warning: this ship's position is 19 days out of date.

Length 18 m.

MMSI: 338104509.

Date/timePositionNaut miles runAvg speedWind from/ knotsBaromVisibWave heightAir tempDewpointWater temp
2015-Mar-09 21:16N 41°17' W 072°55'8 8.6
2015-Mar-09 20:18N 41°10' W 073°00'8 9.8
2015-Mar-09 19:32N 41°05' W 073°08'13 1.5
2015-Mar-09 10:16N 40°55' W 073°21'1 0.0
2015-Mar-08 12:27N 40°56' W 073°21'1 0.2
2015-Mar-08 06:23N 40°55' W 073°21'2 0.2
2015-Mar-07 23:14N 40°57' W 073°20'2 0.2
2015-Mar-07 15:20N 40°55' W 073°21'17 3.2
2015-Mar-07 10:07N 41°04' W 073°02'5 8.7
2015-Mar-07 09:33N 41°08' W 072°58'9 9.2
2015-Mar-07 08:33N 41°17' W 072°55'  
2015-Mar-03 17:13N 41°14' W 072°55'3 4.4
2015-Mar-03 16:33N 41°12' W 072°52'0 0.0
2015-Mar-03 15:33N 41°12' W 072°52'3 3.1
2015-Mar-03 14:33N 41°14' W 072°55'4 0.1
2015-Mar-01 14:22N 41°18' W 072°54'4 4.7
2015-Mar-01 13:32N 41°14' W 072°55'0 0.3
2015-Mar-01 12:33N 41°14' W 072°55'0 0.0
2015-Feb-28 17:15N 41°14' W 072°55'14 8.5
2015-Feb-28 15:33N 41°01' W 073°04'9 9.2
2015-Feb-28 14:33N 41°08' W 072°57'4 3.8
2015-Feb-28 13:34N 41°12' W 072°54'0 0.4
2015-Feb-28 12:33N 41°12' W 072°54'6 5.5
2015-Feb-28 11:32N 41°18' W 072°55'1 0.7
2015-Feb-28 10:23N 41°18' W 072°54'  

Dump ship's entire track history